Time;durP1;ratioP1;P1;durP2;ratioP2;P2;SDS_P1;SDS_P2;PMS_P1;PMS_P2;Temp;Humidity;BMP_temperature;BMP_pressure;BME280_temperature;BME280_humidity;BME280_pressure;Samples;Min_cycle;Max_cycle;Signal;HPM_P1;HPM_P2
2021/06/25 00:00:19;;;;;;;;;15.00;15.00;;;;;13.66;63.22;101692.81;5080188;27;45808;-82
2021/06/25 00:02:45;;;;;;;;;14.00;14.00;;;;;13.68;63.60;101693.47;5078675;28;45976;-82
2021/06/25 00:05:10;;;;;;;;;16.00;14.33;;;;;13.67;63.24;101686.44;5079897;27;46020;-82
2021/06/25 00:07:37;;;;;;;;;14.33;14.33;;;;;13.68;63.43;101685.47;5079926;28;45293;-81
2021/06/25 00:10:07;;;;;;;;;15.67;13.33;;;;;13.65;63.28;101692.00;5112974;27;45360;-82
2021/06/25 00:12:32;;;;;;;;;16.33;14.33;;;;;13.58;63.61;101675.81;5112496;27;45484;-82
2021/06/25 00:14:58;;;;;;;;;17.00;14.67;;;;;13.56;63.97;101693.00;5079280;27;45713;-82
2021/06/25 00:17:23;;;;;;;;;14.00;14.00;;;;;13.47;64.04;101679.63;5079735;27;45336;-82
2021/06/25 00:19:49;;;;;;;;;15.33;14.00;;;;;13.47;64.68;101686.84;5079986;27;45286;-83
2021/06/25 00:22:14;;;;;;;;;12.00;10.33;;;;;13.42;64.64;101683.81;5079517;27;45521;-82
2021/06/25 00:24:40;;;;;;;;;13.67;12.33;;;;;13.39;64.74;101682.34;5079699;27;45258;-82
2021/06/25 00:27:06;;;;;;;;;18.00;15.67;;;;;13.35;64.48;101681.81;5079491;28;45285;-81
2021/06/25 00:29:31;;;;;;;;;17.00;16.00;;;;;13.33;64.66;101683.84;5081608;27;45370;-82
2021/06/25 00:31:57;;;;;;;;;13.00;13.00;;;;;13.31;65.05;101685.84;5099866;27;45257;-82
2021/06/25 00:34:22;;;;;;;;;14.67;14.67;;;;;13.31;64.48;101679.66;5099846;27;45656;-82
2021/06/25 00:36:47;;;;;;;;;12.67;12.00;;;;;13.33;64.85;101680.34;5099899;27;45321;-82
2021/06/25 00:39:13;;;;;;;;;15.67;15.67;;;;;13.29;64.81;101681.69;5100212;27;45341;-82
2021/06/25 00:41:39;;;;;;;;;13.33;13.33;;;;;13.26;64.91;101680.19;5099657;27;45370;-82
2021/06/25 00:44:04;;;;;;;;;14.00;14.00;;;;;13.20;64.80;101675.53;5099665;27;46345;-82
2021/06/25 00:46:31;;;;;;;;;15.67;15.67;;;;;13.16;65.38;101672.34;5099811;27;45298;-81
2021/06/25 00:48:57;;;;;;;;;10.00;10.00;;;;;13.11;65.55;101661.38;5099998;27;45510;-82
2021/06/25 00:51:22;;;;;;;;;16.00;14.00;;;;;13.09;65.29;101661.53;5099601;27;45495;-82
2021/06/25 00:53:48;;;;;;;;;16.00;14.67;;;;;13.09;65.32;101660.69;5115576;27;48099;-82
2021/06/25 00:56:14;;;;;;;;;11.00;11.00;;;;;13.09;65.11;101658.00;5101134;27;45172;-82
2021/06/25 00:58:40;;;;;;;;;15.00;12.00;;;;;13.08;65.39;101664.38;5103245;27;45148;-82
2021/06/25 01:01:05;;;;;;;;;16.33;15.00;;;;;13.06;65.45;101655.69;5103309;27;45463;-82
2021/06/25 01:03:33;;;;;;;;;14.33;14.33;;;;;13.03;65.44;101654.19;5103133;27;46649;-82
2021/06/25 01:05:59;;;;;;;;;15.67;14.67;;;;;13.02;65.37;101654.34;5101839;27;45374;-82
2021/06/25 01:08:27;;;;;;;;;13.67;13.67;;;;;12.98;65.73;101651.19;5103186;27;45277;-81
2021/06/25 01:10:54;;;;;;;;;13.33;13.33;;;;;12.99;65.84;101650.19;5102954;27;45397;-82
2021/06/25 01:13:20;;;;;;;;;12.00;11.00;;;;;12.96;65.98;101651.34;5102649;27;45281;-82
2021/06/25 01:15:46;;;;;;;;;14.67;12.00;;;;;12.88;65.70;101652.19;5118934;27;45239;-82
2021/06/25 01:18:11;;;;;;;;;15.67;14.67;;;;;12.87;65.90;101647.03;5101691;27;45340;-82
2021/06/25 01:20:37;;;;;;;;;16.33;16.00;;;;;12.85;66.38;101652.53;5102953;27;45273;-82
2021/06/25 01:23:04;;;;;;;;;16.00;12.00;;;;;12.83;66.28;101649.19;5102680;27;45395;-82
2021/06/25 01:25:32;;;;;;;;;16.33;14.33;;;;;12.84;66.57;101652.72;5101519;27;45388;-82
2021/06/25 01:28:00;;;;;;;;;14.33;14.33;;;;;12.82;66.44;101652.03;5102676;27;45286;-81
2021/06/25 01:30:28;;;;;;;;;17.33;15.33;;;;;12.81;66.35;101653.03;5091416;27;47294;-82
2021/06/25 01:32:55;;;;;;;;;17.33;15.33;;;;;12.76;66.23;101645.53;5082146;27;46410;-82
2021/06/25 01:35:21;;;;;;;;;17.00;16.00;;;;;12.78;66.39;101650.69;5082010;28;45350;-82
2021/06/25 01:37:47;;;;;;;;;18.33;16.00;;;;;12.75;66.69;101644.69;5082260;28;45325;-82
2021/06/25 01:40:15;;;;;;;;;16.33;15.33;;;;;12.69;66.72;101634.69;5082045;27;45519;-82
2021/06/25 01:42:42;;;;;;;;;14.33;14.33;;;;;12.68;66.66;101634.84;5081796;27;45919;-81
2021/06/25 01:45:19;;;;;;;;;17.00;17.00;;;;;12.70;66.31;101630.19;5081997;28;45332;-82
2021/06/25 01:47:47;;;;;;;;;14.67;14.67;;;;;12.73;66.91;101628.03;5082158;27;45353;-82
2021/06/25 01:50:16;;;;;;;;;17.00;16.33;;;;;12.69;66.72;101629.34;5114809;27;46601;-82
2021/06/25 01:52:46;;;;;;;;;18.00;17.00;;;;;12.65;66.98;101629.84;5081731;28;46275;-82
2021/06/25 01:55:12;;;;;;;;;16.33;16.33;;;;;12.57;67.01;101625.34;5081870;27;45209;-82
2021/06/25 01:57:38;;;;;;;;;17.00;17.00;;;;;12.53;67.18;101624.84;5114879;27;45411;-82
2021/06/25 02:00:05;;;;;;;;;21.00;18.33;;;;;12.50;67.10;101620.69;5081827;28;45278;-81
2021/06/25 02:02:30;;;;;;;;;18.00;16.67;;;;;12.48;67.32;101620.00;5081446;27;45189;-82
2021/06/25 02:04:56;;;;;;;;;18.00;17.67;;;;;12.45;67.27;101614.19;5081699;27;45258;-82
2021/06/25 02:07:21;;;;;;;;;18.67;17.33;;;;;12.47;67.48;101613.00;5081418;28;45413;-82
2021/06/25 02:09:47;;;;;;;;;15.67;15.67;;;;;12.49;67.43;101607.53;5081701;27;45634;-82
2021/06/25 02:12:12;;;;;;;;;21.00;18.33;;;;;12.49;67.10;101613.66;5081477;27;45939;-81
2021/06/25 02:14:37;;;;;;;;;17.67;17.67;;;;;12.46;67.53;101605.19;5081180;27;45391;-81
2021/06/25 02:17:03;;;;;;;;;20.67;17.00;;;;;12.46;67.36;101613.19;5081793;27;45273;-82
2021/06/25 02:19:28;;;;;;;;;18.00;16.33;;;;;12.41;67.44;101613.66;5081529;28;45490;-82
2021/06/25 02:21:54;;;;;;;;;18.33;18.33;;;;;12.35;67.46;101609.00;5081382;27;46033;-81
2021/06/25 02:24:19;;;;;;;;;18.00;17.00;;;;;12.35;67.50;101607.16;5079997;28;45377;-82
2021/06/25 02:26:44;;;;;;;;;16.67;15.67;;;;;12.40;67.32;101597.84;5081420;27;45510;-81
2021/06/25 02:29:10;;;;;;;;;17.67;16.33;;;;;12.38;67.40;101603.34;5081547;27;45395;-81
2021/06/25 02:31:35;;;;;;;;;19.67;17.67;;;;;12.37;67.21;101599.00;5100417;27;45322;-82
2021/06/25 02:34:01;;;;;;;;;19.33;15.67;;;;;12.35;67.71;101607.16;5101732;27;45377;-82
2021/06/25 02:36:26;;;;;;;;;17.00;17.00;;;;;12.27;67.24;101593.00;5101858;27;45656;-81
2021/06/25 02:38:51;;;;;;;;;16.67;15.67;;;;;12.22;67.76;101593.50;5101816;27;45222;-81
2021/06/25 02:41:19;;;;;;;;;15.00;14.67;;;;;12.20;67.74;101596.31;5117377;27;47024;-82
2021/06/25 02:43:44;;;;;;;;;18.67;16.67;;;;;12.16;67.90;101587.00;5101612;27;45328;-81
2021/06/25 02:46:10;;;;;;;;;21.33;16.00;;;;;12.16;67.84;101587.00;5101671;27;45448;-81
2021/06/25 02:48:35;;;;;;;;;16.33;16.33;;;;;12.20;68.08;101595.47;5101656;27;45285;-82
2021/06/25 02:51:00;;;;;;;;;19.67;18.67;;;;;12.18;67.63;101590.31;5101421;27;45240;-81
2021/06/25 02:53:26;;;;;;;;;21.33;21.00;;;;;12.16;67.80;101584.31;5101368;27;45198;-81
2021/06/25 02:55:51;;;;;;;;;17.00;15.67;;;;;12.15;68.10;101585.31;5101736;27;45441;-82
2021/06/25 02:58:21;;;;;;;;;23.00;20.00;;;;;12.17;67.81;101583.31;5101058;27;45279;-82
2021/06/25 03:00:51;;;;;;;;;19.67;19.67;;;;;12.18;67.93;101584.16;5101315;27;46291;-81
2021/06/25 03:03:18;;;;;;;;;15.67;15.33;;;;;12.17;68.16;101593.13;5101176;27;45406;-81
2021/06/25 03:05:43;;;;;;;;;21.67;19.33;;;;;12.07;68.15;101587.97;5101433;27;45296;-81
2021/06/25 03:08:09;;;;;;;;;19.33;16.33;;;;;12.08;68.08;101584.28;5116834;27;47296;-81
2021/06/25 03:10:34;;;;;;;;;20.00;20.00;;;;;12.12;68.09;101591.81;5099714;27;48358;-82
2021/06/25 03:13:00;;;;;;;;;21.00;20.67;;;;;12.12;67.93;101580.28;5100945;27;45341;-81
2021/06/25 03:15:26;;;;;;;;;25.33;25.33;;;;;12.08;68.14;101582.47;5100980;27;45278;-81
2021/06/25 03:17:51;;;;;;;;;18.67;16.00;;;;;12.05;68.10;101572.09;5100704;27;45332;-81
2021/06/25 03:20:17;;;;;;;;;24.67;21.67;;;;;12.09;68.11;101578.00;5100263;27;45292;-81
2021/06/25 03:22:42;;;;;;;;;23.00;21.67;;;;;12.06;68.09;101571.09;5100926;27;45155;-81
2021/06/25 03:25:08;;;;;;;;;22.00;21.00;;;;;12.10;68.26;101577.78;5101184;27;45508;-81
2021/06/25 03:27:34;;;;;;;;;27.67;27.00;;;;;12.05;68.17;101573.94;5116485;27;46971;-81
2021/06/25 03:30:00;;;;;;;;;24.67;24.67;;;;;12.03;68.19;101567.94;5094629;27;45302;-81
2021/06/25 03:32:26;;;;;;;;;28.67;26.00;;;;;12.04;68.56;101577.59;5080250;27;45248;-81
2021/06/25 03:34:51;;;;;;;;;25.33;24.00;;;;;12.07;68.37;101577.31;5080634;27;45637;-81
2021/06/25 03:37:17;;;;;;;;;24.67;21.00;;;;;12.09;68.37;101576.13;5080167;27;45500;-81
2021/06/25 03:39:42;;;;;;;;;18.33;16.00;;;;;12.08;68.37;101574.47;5080303;28;45287;-81
2021/06/25 03:42:07;;;;;;;;;25.00;24.00;;;;;12.05;68.47;101582.78;5080105;27;45320;-81
2021/06/25 03:44:33;;;;;;;;;18.00;16.67;;;;;12.01;68.50;101584.09;5080221;27;45324;-81
2021/06/25 03:46:58;;;;;;;;;17.00;15.67;;;;;12.00;68.62;101583.25;5080168;27;45309;-81
2021/06/25 03:49:24;;;;;;;;;21.00;20.67;;;;;11.97;68.52;101583.56;5080214;27;45656;-81
2021/06/25 03:51:50;;;;;;;;;20.67;19.00;;;;;12.03;68.46;101582.09;5080008;28;45324;-81
2021/06/25 03:54:15;;;;;;;;;20.00;19.00;;;;;12.00;68.77;101583.25;5080124;28;45312;-82
2021/06/25 03:56:41;;;;;;;;;21.00;19.00;;;;;12.02;68.71;101580.44;5079761;27;45276;-81
2021/06/25 03:59:06;;;;;;;;;18.00;17.33;;;;;12.05;68.23;101581.91;5080152;28;46102;-81
2021/06/25 04:01:31;;;;;;;;;21.00;20.00;;;;;12.04;68.67;101573.13;5078674;28;45324;-81
2021/06/25 04:03:57;;;;;;;;;21.00;18.67;;;;;12.06;68.92;101578.28;5080125;27;45209;-81
2021/06/25 04:06:22;;;;;;;;;20.67;18.00;;;;;12.02;69.09;101572.44;5079726;27;45473;-81
2021/06/25 04:08:49;;;;;;;;;23.67;18.00;;;;;12.04;69.11;101575.78;5079848;27;45222;-82
2021/06/25 04:11:17;;;;;;;;;22.00;21.00;;;;;12.08;69.22;101568.31;5079655;27;45293;-81
2021/06/25 04:13:42;;;;;;;;;19.00;19.00;;;;;12.10;69.18;101567.13;5079739;27;45384;-81
2021/06/25 04:16:08;;;;;;;;;27.00;23.33;;;;;12.16;68.83;101570.16;5079606;27;45481;-81
2021/06/25 04:18:33;;;;;;;;;21.00;18.00;;;;;12.19;69.09;101573.34;5079594;27;45371;-81
2021/06/25 04:20:59;;;;;;;;;20.00;19.67;;;;;12.20;69.09;101576.81;5079747;27;45319;-81
2021/06/25 04:23:25;;;;;;;;;22.00;20.00;;;;;12.20;69.22;101574.16;5079783;27;45235;-81
2021/06/25 04:25:50;;;;;;;;;24.00;23.00;;;;;12.17;69.32;101567.34;5078376;28;47088;-81
2021/06/25 04:28:16;;;;;;;;;25.67;20.67;;;;;12.25;69.49;101579.84;5112159;27;47036;-81
2021/06/25 04:30:43;;;;;;;;;25.00;22.67;;;;;12.26;69.40;101578.84;5091929;27;45246;-81
2021/06/25 04:33:12;;;;;;;;;28.33;22.33;;;;;12.32;69.78;101574.66;5103819;27;45271;-81
2021/06/25 04:35:38;;;;;;;;;19.67;19.67;;;;;12.36;69.69;101576.84;5103553;27;45363;-81
2021/06/25 04:38:04;;;;;;;;;23.33;22.33;;;;;12.42;69.54;101579.84;5103327;27;46679;-82
2021/06/25 04:40:36;;;;;;;;;20.67;20.00;;;;;12.46;69.55;101570.53;5103476;27;45381;-81
2021/06/25 04:43:01;;;;;;;;;19.67;19.67;;;;;12.49;69.84;101572.84;5103329;27;45421;-81
2021/06/25 04:45:26;;;;;;;;;25.33;21.67;;;;;12.51;69.67;101570.84;5103372;27;45413;-81
2021/06/25 04:47:52;;;;;;;;;21.67;20.33;;;;;12.59;70.04;101570.00;5103498;27;45351;-81
2021/06/25 04:50:17;;;;;;;;;25.67;23.00;;;;;12.68;70.00;101579.69;5103413;27;45410;-81
2021/06/25 04:52:43;;;;;;;;;28.00;24.00;;;;;12.75;69.93;101571.81;5103592;27;45362;-82
2021/06/25 04:55:09;;;;;;;;;23.00;22.00;;;;;12.83;70.31;101565.66;5103326;27;45330;-81
2021/06/25 04:57:36;;;;;;;;;22.67;21.67;;;;;12.94;69.88;101577.81;5103123;27;45417;-81
2021/06/25 05:00:03;;;;;;;;;20.67;19.33;;;;;12.96;69.19;101563.28;5119251;27;45253;-82
2021/06/25 05:02:28;;;;;;;;;30.33;24.00;;;;;13.10;69.46;101580.47;5103329;27;45305;-82
2021/06/25 05:04:53;;;;;;;;;27.67;25.67;;;;;13.21;69.18;101573.94;5103145;27;45508;-82
2021/06/25 05:07:19;;;;;;;;;24.00;22.00;;;;;13.28;69.05;101579.41;5118773;27;48486;-82
2021/06/25 05:09:44;;;;;;;;;22.33;22.00;;;;;13.35;68.93;101577.69;5103200;27;45166;-82
2021/06/25 05:12:09;;;;;;;;;28.33;26.33;;;;;13.45;68.66;101574.00;5103093;27;45267;-82
2021/06/25 05:14:35;;;;;;;;;22.00;21.67;;;;;13.51;68.81;101573.34;5102775;27;45260;-82
2021/06/25 05:17:00;;;;;;;;;25.33;23.67;;;;;13.59;68.75;101581.31;5102989;27;45172;-82
2021/06/25 05:19:25;;;;;;;;;27.33;24.33;;;;;13.57;68.94;101563.81;5103061;27;45368;-82
2021/06/25 05:21:51;;;;;;;;;18.33;18.33;;;;;13.69;68.49;101572.25;5103040;27;45234;-82
2021/06/25 05:24:16;;;;;;;;;24.00;22.33;;;;;13.73;68.79;101581.59;5118633;27;46708;-82
2021/06/25 05:26:42;;;;;;;;;24.00;22.33;;;;;13.76;68.83;101576.75;5102687;27;45332;-82
2021/06/25 05:29:07;;;;;;;;;26.00;24.00;;;;;13.82;68.81;101590.38;5101355;27;45319;-82
2021/06/25 05:31:32;;;;;;;;;27.00;25.33;;;;;13.86;68.81;101578.38;5083547;27;45367;-82
2021/06/25 05:33:58;;;;;;;;;21.33;19.00;;;;;13.91;69.13;101586.66;5082258;27;45378;-82
2021/06/25 05:36:23;;;;;;;;;25.33;23.67;;;;;14.00;68.85;101587.44;5082124;27;45310;-82
2021/06/25 05:38:49;;;;;;;;;22.00;22.00;;;;;14.07;68.96;101582.25;5082213;27;45564;-81
2021/06/25 05:41:14;;;;;;;;;27.00;23.00;;;;;14.06;69.39;101567.19;5081627;27;45392;-81
2021/06/25 05:43:42;;;;;;;;;25.00;21.00;;;;;14.22;69.15;101582.31;5080507;28;46097;-82
2021/06/25 05:46:07;;;;;;;;;25.67;23.33;;;;;14.29;68.70;101585.94;5081966;27;47140;-82
2021/06/25 05:48:33;;;;;;;;;27.33;24.67;;;;;14.36;68.83;101581.53;5082057;27;45281;-83
2021/06/25 05:50:58;;;;;;;;;31.67;29.67;;;;;14.42;68.26;101581.84;5080787;28;45295;-83
2021/06/25 05:53:25;;;;;;;;;24.33;23.33;;;;;14.52;68.56;101577.88;5079953;28;47012;-82
2021/06/25 05:55:50;;;;;;;;;26.67;24.00;;;;;14.61;67.91;101581.31;5081906;28;45426;-83
2021/06/25 05:58:16;;;;;;;;;30.33;28.67;;;;;14.68;67.86;101581.44;5097350;27;45240;-82
2021/06/25 06:00:41;;;;;;;;;33.00;31.33;;;;;14.73;67.80;101579.03;5082182;27;45624;-82
2021/06/25 06:03:07;;;;;;;;;31.00;27.33;;;;;14.84;68.47;101580.47;5076941;28;46413;-82
2021/06/25 06:05:32;;;;;;;;;37.00;31.67;;;;;14.89;68.33;101578.09;5077180;28;46898;-82
2021/06/25 06:07:57;;;;;;;;;26.67;25.67;;;;;14.98;67.96;101580.69;5061587;28;45359;-82
2021/06/25 06:10:23;;;;;;;;;32.67;29.33;;;;;15.08;68.34;101583.13;5061916;28;45311;-82
2021/06/25 06:12:48;;;;;;;;;29.33;26.33;;;;;15.15;68.20;101573.31;5061214;28;45360;-82
2021/06/25 06:15:17;;;;;;;;;32.67;28.67;;;;;15.22;68.42;101573.41;5061287;28;45388;-82
2021/06/25 06:17:47;;;;;;;;;30.33;29.67;;;;;15.30;68.24;101573.31;5060166;28;45762;-83
2021/06/25 06:20:25;;;;;;;;;25.67;24.67;;;;;15.40;68.31;101575.72;5100432;27;45491;-81
2021/06/25 06:31:22;;;;;;;;;26.00;21.33;;;;;15.67;67.68;101561.81;5096564;27;45315;-83
2021/06/25 06:34:06;;;;;;;;;29.00;27.33;;;;;15.72;66.66;101565.59;5102251;27;45416;-81
2021/06/25 06:36:41;;;;;;;;;27.00;24.33;;;;;15.75;66.45;101570.56;5101361;27;46276;-80
2021/06/25 06:39:07;;;;;;;;;34.00;29.67;;;;;15.85;66.31;101577.47;5100204;27;45347;-81
2021/06/25 06:41:34;;;;;;;;;22.33;21.33;;;;;15.87;66.12;101565.53;5100578;27;45335;-80
2021/06/25 06:44:00;;;;;;;;;22.67;21.00;;;;;15.94;66.34;101580.88;5099851;27;46536;-80
2021/06/25 06:46:25;;;;;;;;;23.33;21.67;;;;;15.97;66.35;101576.00;5101432;27;45384;-80
2021/06/25 06:48:51;;;;;;;;;24.67;23.00;;;;;16.02;66.56;101570.88;5101458;27;45380;-80
2021/06/25 06:51:16;;;;;;;;;20.67;20.67;;;;;16.03;66.59;101567.19;5102037;27;45445;-80
2021/06/25 06:53:43;;;;;;;;;22.33;19.67;;;;;16.08;66.93;101569.31;5100412;27;45204;-81
2021/06/25 06:56:10;;;;;;;;;24.67;21.33;;;;;16.11;66.44;101565.41;5101231;27;45211;-81
2021/06/25 06:58:36;;;;;;;;;16.33;15.67;;;;;16.18;66.78;101565.47;5060435;28;45463;-82
2021/06/25 07:01:02;;;;;;;;;26.00;23.00;;;;;16.23;66.85;101558.53;5060513;28;45401;-82
2021/06/25 07:03:27;;;;;;;;;26.33;22.67;;;;;16.27;66.54;101558.94;5060384;28;45314;-82
2021/06/25 07:05:52;;;;;;;;;28.33;25.33;;;;;16.34;65.80;101559.03;5059140;28;47029;-82
2021/06/25 07:08:18;;;;;;;;;23.67;23.00;;;;;16.39;66.13;101565.47;5060379;28;45220;-81
2021/06/25 07:10:44;;;;;;;;;22.67;22.00;;;;;16.42;66.23;101564.25;5060630;28;45326;-82
2021/06/25 07:13:09;;;;;;;;;23.00;21.00;;;;;16.46;66.25;101553.97;5059082;28;46059;-81
2021/06/25 07:15:36;;;;;;;;;22.33;22.00;;;;;16.58;66.12;101559.63;5061177;28;45375;-83
2021/06/25 07:18:02;;;;;;;;;22.00;19.00;;;;;16.62;66.32;101556.38;5063373;28;45283;-81
2021/06/25 07:20:28;;;;;;;;;29.33;27.00;;;;;16.67;66.26;101555.75;5060480;28;45157;-81
2021/06/25 07:22:53;;;;;;;;;22.33;22.33;;;;;16.79;65.89;101566.78;5060397;28;45490;-82
2021/06/25 07:25:18;;;;;;;;;24.00;24.00;;;;;16.89;65.30;101563.78;5063538;28;46176;-83
2021/06/25 07:27:44;;;;;;;;;20.67;20.67;;;;;16.98;64.90;101562.59;5060067;28;46141;-83
2021/06/25 07:30:09;;;;;;;;;20.33;19.00;;;;;17.09;65.33;101569.28;5066949;27;45315;-82
2021/06/25 07:32:35;;;;;;;;;20.67;20.67;;;;;17.15;64.06;101560.44;5061412;27;45538;-83
2021/06/25 07:35:00;;;;;;;;;20.00;20.00;;;;;17.24;64.45;101552.22;5059919;28;45342;-84
2021/06/25 07:37:26;;;;;;;;;22.67;19.00;;;;;17.33;63.40;101556.38;5068662;28;45880;-85
2021/06/25 07:39:51;;;;;;;;;24.00;22.33;;;;;17.37;62.54;101546.09;5061630;27;45345;-81
2021/06/25 07:42:17;;;;;;;;;23.00;19.67;;;;;17.43;62.89;101545.28;5067610;28;45622;-82
2021/06/25 07:44:42;;;;;;;;;15.67;13.67;;;;;17.50;61.33;101551.50;5070203;28;46276;-83
2021/06/25 07:47:08;;;;;;;;;24.67;21.00;;;;;17.55;63.35;101553.59;5078331;28;45390;-84
2021/06/25 07:49:34;;;;;;;;;23.00;21.33;;;;;17.63;62.88;101552.59;5080438;27;45316;-82
2021/06/25 07:52:00;;;;;;;;;24.33;23.33;;;;;17.72;61.07;101553.25;5077702;28;46933;-85
2021/06/25 07:54:26;;;;;;;;;25.67;25.67;;;;;17.76;62.50;101543.72;5069759;27;45450;-81
2021/06/25 07:56:51;;;;;;;;;29.00;27.00;;;;;17.84;61.31;101532.78;5072444;28;45507;-81
2021/06/25 07:59:17;;;;;;;;;21.00;20.33;;;;;17.91;62.38;101539.03;5079209;28;45813;-81
2021/06/25 08:01:42;;;;;;;;;19.67;19.67;;;;;18.01;61.37;101535.91;5080000;28;46011;-82
2021/06/25 08:04:07;;;;;;;;;24.00;22.67;;;;;18.11;61.20;101540.91;5097487;27;47173;-82
2021/06/25 08:06:33;;;;;;;;;23.67;20.00;;;;;18.19;61.51;101536.41;5080645;27;45266;-79
2021/06/25 08:09:02;;;;;;;;;21.67;19.00;;;;;18.29;60.99;101534.94;5095682;27;45178;-81
2021/06/25 08:11:27;;;;;;;;;24.33;22.33;;;;;18.37;61.64;101527.69;5077023;28;47318;-82
2021/06/25 08:13:53;;;;;;;;;21.67;19.00;;;;;18.46;60.47;101525.63;5063971;27;46074;-81
2021/06/25 08:16:19;;;;;;;;;23.00;21.00;;;;;18.51;60.56;101521.28;5063013;28;45263;-82
2021/06/25 08:18:45;;;;;;;;;22.00;21.33;;;;;18.60;59.07;101527.28;5063245;28;45518;-80
2021/06/25 08:21:10;;;;;;;;;22.33;19.00;;;;;18.67;59.56;101519.16;5059974;28;45340;-81
2021/06/25 08:23:35;;;;;;;;;19.33;18.00;;;;;18.71;59.33;101517.75;5059635;28;45559;-81
2021/06/25 08:26:01;;;;;;;;;19.00;19.00;;;;;18.72;59.61;101516.69;5059163;28;45288;-80
2021/06/25 08:28:26;;;;;;;;;18.00;17.67;;;;;18.74;59.74;101514.59;5059535;28;45272;-79
2021/06/25 08:30:52;;;;;;;;;21.33;20.67;;;;;18.78;59.67;101515.03;5085464;27;45308;-80
2021/06/25 08:33:17;;;;;;;;;23.67;22.67;;;;;18.79;59.85;101509.44;5076306;27;46014;-79
2021/06/25 08:35:42;;;;;;;;;24.00;23.00;;;;;18.84;59.25;101510.66;5074912;28;45276;-78
2021/06/25 08:38:08;;;;;;;;;19.67;19.67;;;;;18.89;60.25;101510.84;5076908;28;45314;-76
2021/06/25 08:40:33;;;;;;;;;23.67;22.33;;;;;18.87;59.57;101504.84;5070657;27;45457;-76
2021/06/25 08:43:01;;;;;;;;;20.67;19.67;;;;;18.94;58.99;101508.34;5066448;28;45774;-77
2021/06/25 08:45:28;;;;;;;;;24.33;22.33;;;;;18.97;58.24;101501.72;5062874;28;45489;-78
2021/06/25 08:47:53;;;;;;;;;20.67;20.67;;;;;19.04;59.08;101499.84;5062368;28;45508;-78
2021/06/25 08:50:22;;;;;;;;;19.33;19.33;;;;;19.10;59.31;101495.47;5063856;27;45497;-77
2021/06/25 08:52:51;;;;;;;;;22.33;20.67;;;;;19.21;59.64;101488.59;5062907;28;46088;-75
2021/06/25 08:55:17;;;;;;;;;21.33;20.67;;;;;19.35;58.40;101500.13;5062604;27;45461;-76
2021/06/25 08:57:42;;;;;;;;;23.00;23.00;;;;;19.41;57.79;101494.72;5065255;27;45443;-79
2021/06/25 09:00:10;;;;;;;;;26.00;23.00;;;;;19.50;58.51;101491.75;5072319;28;45363;-80
2021/06/25 09:02:37;;;;;;;;;20.33;19.67;;;;;19.55;57.95;101481.97;5068146;28;45657;-78
2021/06/25 09:05:08;;;;;;;;;24.00;21.33;;;;;19.66;56.93;101485.03;5076592;28;45672;-79
2021/06/25 09:07:40;;;;;;;;;19.67;19.67;;;;;19.72;57.38;101486.84;5071195;28;45491;-79
2021/06/25 09:10:06;;;;;;;;;23.00;23.00;;;;;19.77;55.85;101476.25;5077759;28;46371;-77
2021/06/25 09:12:31;;;;;;;;;23.33;22.00;;;;;19.87;54.35;101480.34;5067043;28;48180;-77
2021/06/25 09:15:15;;;;;;;;;23.00;21.33;;;;;20.02;55.89;101485.47;5071762;27;45530;-78
2021/06/25 09:17:58;;;;;;;;;21.33;20.00;;;;;20.11;55.43;101475.22;5070593;28;45341;-78
2021/06/25 09:20:39;;;;;;;;;21.67;20.00;;;;;20.24;54.12;101482.34;5076210;28;45567;-78
2021/06/25 09:23:09;;;;;;;;;21.67;21.67;;;;;20.25;52.92;101482.13;5078700;27;46464;-79
2021/06/25 09:25:55;;;;;;;;;15.33;15.33;;;;;20.25;53.81;101471.34;5069952;28;45559;-78
2021/06/25 09:28:26;;;;;;;;;20.00;18.00;;;;;20.29;53.59;101467.16;5078696;28;45431;-81
2021/06/25 09:30:52;;;;;;;;;21.33;18.33;;;;;20.36;54.18;101466.25;5077469;27;45585;-81
2021/06/25 09:33:18;;;;;;;;;15.67;15.67;;;;;20.47;54.53;101472.81;5085555;27;46974;-81
2021/06/25 09:35:49;;;;;;;;;16.67;16.33;;;;;20.52;52.81;101470.25;5072601;27;45215;-82
2021/06/25 09:38:14;;;;;;;;;17.00;16.00;;;;;20.55;52.86;101469.81;5073674;28;45346;-79
2021/06/25 09:40:40;;;;;;;;;21.67;19.67;;;;;20.56;50.12;101472.28;5065905;28;45504;-78
2021/06/25 09:43:11;;;;;;;;;22.00;19.00;;;;;20.59;51.55;101471.00;5080833;27;46308;-81
2021/06/25 09:45:46;;;;;;;;;20.33;18.67;;;;;20.64;50.86;101462.22;5067891;28;45325;-82
2021/06/25 09:48:12;;;;;;;;;15.67;15.67;;;;;20.67;51.27;101465.31;5070909;28;45337;-82
2021/06/25 09:50:38;;;;;;;;;19.00;18.00;;;;;20.73;50.81;101466.28;5080789;27;45535;-79
2021/06/25 09:53:07;;;;;;;;;19.67;16.33;;;;;20.78;50.50;101463.75;5077362;27;46246;-80
2021/06/25 09:55:53;;;;;;;;;24.67;20.00;;;;;20.84;50.96;101469.28;5073627;28;45321;-79
2021/06/25 10:03:40;;;;;;;;;16.67;16.67;;;;;21.08;50.42;101456.78;5062350;28;45399;-75
2021/06/25 10:06:11;;;;;;;;;21.33;20.00;;;;;21.18;50.47;101461.63;5068322;27;45370;-74
2021/06/25 10:08:37;;;;;;;;;20.00;20.00;;;;;21.31;52.41;101463.34;5069380;28;45495;-74
2021/06/25 10:11:05;;;;;;;;;18.00;18.00;;;;;21.39;51.95;101464.88;5062854;28;45361;-74
2021/06/25 10:13:35;;;;;;;;;18.67;17.00;;;;;21.46;51.19;101456.69;5062414;28;46520;-74
2021/06/25 10:16:02;;;;;;;;;15.33;15.33;;;;;21.59;52.18;101461.06;5072861;28;45403;-74
2021/06/25 10:18:30;;;;;;;;;17.00;17.00;;;;;21.73;51.45;101453.56;5068621;28;45351;-75
2021/06/25 10:20:56;;;;;;;;;18.67;17.33;;;;;21.76;47.43;101451.25;5077729;27;47249;-75
2021/06/25 10:23:24;;;;;;;;;17.67;17.00;;;;;21.86;48.96;101460.69;5077288;27;46106;-78
2021/06/25 10:25:50;;;;;;;;;18.67;17.00;;;;;21.94;48.71;101455.75;5083000;28;45552;-76
2021/06/25 10:28:18;;;;;;;;;22.33;21.33;;;;;22.01;48.79;101458.34;5077708;28;45378;-75
2021/06/25 10:30:46;;;;;;;;;15.33;14.33;;;;;22.12;47.54;101456.69;5085777;27;45422;-77
2021/06/25 10:33:12;;;;;;;;;19.33;18.33;;;;;22.16;48.69;101451.63;5072815;27;45441;-75
2021/06/25 10:35:40;;;;;;;;;18.67;18.67;;;;;22.25;47.50;101454.81;5073573;28;45483;-77
2021/06/25 10:38:06;;;;;;;;;19.00;18.33;;;;;22.29;45.69;101450.56;5072487;28;45404;-79
2021/06/25 10:40:31;;;;;;;;;21.00;20.00;;;;;22.35;49.00;101441.50;5086552;27;47088;-78
2021/06/25 10:42:59;;;;;;;;;20.67;20.33;;;;;22.44;47.56;101437.38;5079854;27;46417;-79
2021/06/25 10:45:39;;;;;;;;;20.33;20.33;;;;;22.63;49.31;101431.03;5073019;27;45370;-76
2021/06/25 10:48:06;;;;;;;;;23.67;20.00;;;;;22.79;48.56;101437.56;5069908;28;45337;-78
2021/06/25 10:50:32;;;;;;;;;23.67;23.67;;;;;22.78;48.20;101428.63;5071423;28;45498;-77
2021/06/25 10:53:13;;;;;;;;;18.33;18.00;;;;;22.85;48.13;101433.91;5061622;28;46936;-78
2021/06/25 10:55:45;;;;;;;;;20.67;17.00;;;;;22.89;48.48;101432.34;5061661;28;46029;-80
2021/06/25 10:58:12;;;;;;;;;18.00;17.00;;;;;22.94;48.25;101434.34;5062033;28;45315;-78
2021/06/25 11:00:38;;;;;;;;;15.67;15.67;;;;;22.97;46.04;101430.31;5061316;27;45919;-77
2021/06/25 11:03:04;;;;;;;;;18.67;16.33;;;;;22.98;45.42;101432.78;5062395;28;46193;-76
2021/06/25 11:05:34;;;;;;;;;19.00;17.33;;;;;23.13;46.58;101417.91;5065371;28;45410;-78
2021/06/25 11:08:20;;;;;;;;;17.33;17.33;;;;;23.31;44.67;101425.81;5074454;28;45615;-78
2021/06/25 11:10:52;;;;;;;;;16.67;16.00;;;;;23.51;47.24;101421.03;5061132;27;45319;-77
2021/06/25 11:13:22;;;;;;;;;19.33;18.00;;;;;23.63;47.12;101424.50;5070842;28;48210;-77
2021/06/25 11:15:53;;;;;;;;;20.00;20.00;;;;;23.77;46.43;101419.56;5069613;28;46086;-76
2021/06/25 11:18:22;;;;;;;;;17.33;17.00;;;;;24.02;48.00;101420.19;5072755;27;45369;-77
2021/06/25 11:20:52;;;;;;;;;18.67;18.67;;;;;24.24;46.49;101411.31;5063143;28;46067;-75